Liberty Park, Washington
Current Conditions -  °F | °C
As of 10:18 PM on Wednesday 28 Jan 2015 (Local Time) from KSFF Reporting Station
Haze Haze  
Wind Chill: 31°   Ceiling: 400
Heat Index: 31°   Visibility: 1mi
Dew Point: 29°   Wind: 0mph
Humidity: 92%   Direction: NA
Pressure: 30.45"   Gusts: NA
Location:  47.6483°N, 117.412°W
Report Text: KSFF 290618Z AUTO 00000KT 1SM BR VV004 M01/M02 A3045 RMK AO2 I1000 T10061017
Loading
Personal Weather Stations






























Interactive Weather Map New forecast layout! Learn more

10-Day Weather Forecast

Advertisements
Track Severe Weather on mobile